createdAt,value
2022-07-26T00:00:06.086Z,96869.28
2022-07-26T00:04:59.629Z,96861.44
2022-07-26T00:09:54.407Z,96863.13
2022-07-26T00:14:47.818Z,96875.06
2022-07-26T00:19:41.201Z,96882.88
2022-07-26T00:24:35.608Z,96886.38
2022-07-26T00:29:30.479Z,96882.22
2022-07-26T00:34:23.876Z,96894.84
2022-07-26T00:39:17.382Z,96894.88
2022-07-26T00:44:10.973Z,96887.66
2022-07-26T00:49:06.167Z,96888.47
2022-07-26T00:53:59.834Z,96900.06
2022-07-26T00:58:53.525Z,96903.34
2022-07-26T01:04:32.498Z,96905.63
2022-07-26T01:09:30.073Z,96915.13
2022-07-26T01:14:27.372Z,96920.16
2022-07-26T01:19:22.861Z,96921.38
2022-07-26T01:24:28.271Z,96921.59
2022-07-26T01:29:21.712Z,96930.03
2022-07-26T01:34:15.054Z,96931.94
2022-07-26T01:39:39.516Z,96940.19
2022-07-26T01:44:32.971Z,96931.94
2022-07-26T01:49:26.374Z,96932.16
2022-07-26T01:54:36.840Z,96928.22
2022-07-26T01:59:30.253Z,96916.88
2022-07-26T02:04:40.983Z,96927.81
2022-07-26T02:09:47.168Z,96928.41
2022-07-26T02:14:41.759Z,96928.81
2022-07-26T02:19:35.352Z,96935.84
2022-07-26T02:24:39.458Z,96920.97
2022-07-26T02:29:34.230Z,96930.44
2022-07-26T02:34:32.236Z,96931.03
2022-07-26T02:39:29.478Z,96941.16
2022-07-26T02:44:23.565Z,96935.63
2022-07-26T02:49:23.067Z,96933.78
2022-07-26T02:54:16.785Z,96935.41
2022-07-26T02:59:10.172Z,96935.19
2022-07-26T03:04:03.870Z,96934.97
2022-07-26T03:08:58.695Z,96933.28
2022-07-26T03:13:52.078Z,96939.09
2022-07-26T03:18:45.950Z,96937.22
2022-07-26T03:23:39.379Z,96931.03
2022-07-26T03:28:34.854Z,96932.91
2022-07-26T03:33:28.294Z,96945.66
2022-07-26T03:38:21.748Z,96952.81
2022-07-26T03:43:15.317Z,96952.38
2022-07-26T03:48:10.242Z,96953.00
2022-07-26T03:53:08.350Z,96956.09
2022-07-26T03:58:01.724Z,96968.47
2022-07-26T04:02:55.210Z,96965.97
2022-07-26T04:07:53.350Z,96960.16
2022-07-26T04:12:46.963Z,96961.69
2022-07-26T04:17:41.631Z,96965.66
2022-07-26T04:22:35.872Z,96966.47
2022-07-26T04:27:31.041Z,96964.88
2022-07-26T04:32:24.576Z,96982.38
2022-07-26T04:37:17.995Z,96985.66
2022-07-26T04:42:12.295Z,96982.47
2022-07-26T04:47:07.323Z,96985.78
2022-07-26T04:52:00.724Z,96995.19
2022-07-26T04:56:54.131Z,96999.38
2022-07-26T05:01:47.569Z,97004.56
2022-07-26T05:06:43.358Z,97001.59
2022-07-26T05:11:36.752Z,96996.66
2022-07-26T05:16:30.185Z,97002.47
2022-07-26T05:21:24.876Z,97001.81
2022-07-26T05:26:19.651Z,97001.56
2022-07-26T05:31:13.078Z,96996.03
2022-07-26T05:36:07.422Z,96996.13
2022-07-26T05:41:00.825Z,96999.16
2022-07-26T05:45:57.363Z,97003.22
2022-07-26T05:50:50.962Z,96991.59
2022-07-26T05:55:44.301Z,96986.34
2022-07-26T06:00:37.694Z,96979.94
2022-07-26T06:05:32.410Z,97001.91
2022-07-26T06:10:25.983Z,97001.81
2022-07-26T06:15:19.552Z,97007.63
2022-07-26T06:20:13.457Z,97008.59
2022-07-26T06:25:09.652Z,97008.47
2022-07-26T06:30:03.225Z,97018.09
2022-07-26T06:34:56.528Z,97025.16
2022-07-26T06:39:49.916Z,97024.53
2022-07-26T06:44:44.705Z,97022.63
2022-07-26T06:49:38.167Z,97027.31
2022-07-26T06:54:31.515Z,97032.28
2022-07-26T06:59:24.973Z,97026.31
2022-07-26T07:04:19.776Z,97027.66
2022-07-26T07:09:13.525Z,97029.31
2022-07-26T07:14:09.512Z,97029.03
2022-07-26T07:19:03.245Z,97027.28
2022-07-26T07:23:57.947Z,97019.25
2022-07-26T07:28:51.442Z,97012.69
2022-07-26T07:33:53.644Z,97012.41
2022-07-26T07:38:47.409Z,97002.31
2022-07-26T07:43:42.097Z,97005.00
2022-07-26T07:48:35.525Z,97004.63
2022-07-26T07:53:30.501Z,97018.47
2022-07-26T07:58:24.420Z,97018.56
2022-07-26T08:03:22.867Z,97012.94
2022-07-26T08:08:16.742Z,97013.66
2022-07-26T08:13:10.200Z,96997.72
2022-07-26T08:18:04.861Z,97005.97
2022-07-26T08:23:05.593Z,97007.31
2022-07-26T08:28:06.060Z,96999.72
2022-07-26T08:33:00.293Z,97002.72
2022-07-26T08:37:53.621Z,96997.94
2022-07-26T08:42:53.737Z,96996.03
2022-07-26T08:48:15.111Z,96990.84
2022-07-26T08:53:04.186Z,96997.88
2022-07-26T08:57:59.567Z,97003.03
2022-07-26T09:02:54.285Z,97003.91
2022-07-26T09:07:48.166Z,97014.69
2022-07-26T09:12:42.811Z,97012.56
2022-07-26T09:17:44.847Z,97013.13
2022-07-26T09:22:40.343Z,97006.81
2022-07-26T09:27:37.731Z,96998.19
2022-07-26T09:32:31.419Z,96998.16
2022-07-26T09:37:40.504Z,97001.69
2022-07-26T09:42:34.090Z,97012.16
2022-07-26T09:47:38.057Z,97010.31
2022-07-26T09:52:31.556Z,97000.28
2022-07-26T09:57:26.283Z,97012.47
2022-07-26T10:02:19.633Z,97017.84
2022-07-26T10:07:13.115Z,97009.41
2022-07-26T10:12:10.308Z,97007.13
2022-07-26T10:17:46.091Z,97031.78
2022-07-26T10:22:51.182Z,97032.88
2022-07-26T10:27:47.181Z,97017.00
2022-07-26T10:32:43.921Z,97026.06
2022-07-26T10:37:37.806Z,97032.28
2022-07-26T10:42:46.039Z,97025.44
2022-07-26T10:47:59.797Z,97023.44
2022-07-26T10:53:01.833Z,97013.28
2022-07-26T10:57:55.341Z,97019.84
2022-07-26T11:02:58.146Z,97015.00
2022-07-26T11:08:08.261Z,97013.56
2022-07-26T11:13:19.495Z,97003.19
2022-07-26T11:18:21.404Z,96991.81
2022-07-26T11:23:29.772Z,96994.66
2022-07-26T11:28:23.285Z,96985.81
2022-07-26T11:33:17.161Z,96977.72
2022-07-26T11:38:12.423Z,96984.78
2022-07-26T11:43:07.609Z,96975.84
2022-07-26T11:48:01.347Z,96960.56
2022-07-26T11:52:58.344Z,96961.84
2022-07-26T11:57:52.341Z,96957.53
2022-07-26T12:02:50.297Z,96954.88
2022-07-26T12:07:58.463Z,96958.00
2022-07-26T12:13:07.973Z,96946.47
2022-07-26T12:18:04.181Z,96956.63
2022-07-26T12:23:06.129Z,96960.19
2022-07-26T12:28:00.731Z,96940.78
2022-07-26T12:32:55.475Z,96945.94
2022-07-26T12:37:54.507Z,96939.75
2022-07-26T12:43:01.246Z,96937.91
2022-07-26T12:47:59.519Z,96935.00
2022-07-26T12:53:05.163Z,96938.53
2022-07-26T12:57:59.621Z,96925.50
2022-07-26T13:02:54.860Z,96925.09
2022-07-26T13:07:49.158Z,96930.09
2022-07-26T13:12:44.089Z,96909.00
2022-07-26T13:17:38.052Z,96904.22
2022-07-26T13:22:31.470Z,96895.31
2022-07-26T13:27:26.135Z,96896.72
2022-07-26T13:32:32.628Z,96898.84
2022-07-26T13:37:26.453Z,96885.97
2022-07-26T13:42:23.031Z,96885.72
2022-07-26T13:47:17.515Z,96893.97
2022-07-26T13:52:16.820Z,96887.94
2022-07-26T13:57:10.833Z,96877.72
2022-07-26T14:02:06.556Z,96876.72
2022-07-26T14:07:03.533Z,96880.75
2022-07-26T14:11:59.090Z,96884.53
2022-07-26T14:16:53.560Z,96871.75
2022-07-26T14:21:59.905Z,96868.28
2022-07-26T14:26:58.844Z,96875.53
2022-07-26T14:31:58.404Z,96877.75
2022-07-26T14:37:08.332Z,96873.41
2022-07-26T14:42:17.404Z,96870.47
2022-07-26T14:47:12.206Z,96875.88
2022-07-26T14:52:06.213Z,96869.09
2022-07-26T14:57:00.108Z,96863.03
2022-07-26T15:01:54.504Z,96869.50
2022-07-26T15:06:49.467Z,96856.09
2022-07-26T15:11:43.078Z,96847.47
2022-07-26T15:16:36.851Z,96840.66
2022-07-26T15:21:30.291Z,96847.00
2022-07-26T15:26:25.252Z,96851.06
2022-07-26T15:31:18.976Z,96842.41
2022-07-26T15:36:12.479Z,96832.09
2022-07-26T15:41:06.102Z,96834.34
2022-07-26T15:46:01.054Z,96826.94
2022-07-26T15:50:55.962Z,96829.59
2022-07-26T15:55:49.837Z,96828.56
2022-07-26T16:00:44.143Z,96816.59
2022-07-26T16:05:39.563Z,96820.50
2022-07-26T16:10:33.100Z,96817.09
2022-07-26T16:15:26.954Z,96809.63
2022-07-26T16:20:20.571Z,96818.09
2022-07-26T16:25:16.299Z,96809.88
2022-07-26T16:30:11.701Z,96802.91
2022-07-26T16:35:05.840Z,96794.00
2022-07-26T16:39:59.228Z,96803.34
2022-07-26T16:44:54.165Z,96794.16
2022-07-26T16:49:48.564Z,96798.94
2022-07-26T16:54:43.277Z,96800.78
2022-07-26T16:59:37.182Z,96794.97
2022-07-26T17:04:32.668Z,96796.03
2022-07-26T17:09:26.095Z,96799.53
2022-07-26T17:14:20.580Z,96814.44
2022-07-26T17:19:14.748Z,96802.47
2022-07-26T17:24:10.310Z,96802.06
2022-07-26T17:29:07.898Z,96801.03
2022-07-26T17:34:01.808Z,96792.78
2022-07-26T17:38:57.076Z,96794.28
2022-07-26T17:43:53.886Z,96796.75
2022-07-26T17:48:47.594Z,96803.41
2022-07-26T17:53:42.769Z,96799.47
2022-07-26T17:58:38.318Z,96798.44
2022-07-26T18:03:33.651Z,96806.91
2022-07-26T18:08:28.187Z,96807.94
2022-07-26T18:13:22.172Z,96803.81
2022-07-26T18:18:15.682Z,96802.97
2022-07-26T18:23:11.399Z,96793.31
2022-07-26T18:28:07.268Z,96797.44
2022-07-26T18:33:01.513Z,96801.75
2022-07-26T18:37:55.918Z,96804.22
2022-07-26T18:42:51.271Z,96809.34
2022-07-26T18:47:45.138Z,96811.59
2022-07-26T18:52:41.118Z,96816.34
2022-07-26T18:57:35.875Z,96810.56
2022-07-26T19:02:30.998Z,96827.28
2022-07-26T19:07:24.734Z,96819.03
2022-07-26T19:12:18.325Z,96838.81
2022-07-26T19:17:12.046Z,96847.44
2022-07-26T19:22:07.208Z,96850.34
2022-07-26T19:27:01.328Z,96861.50
2022-07-26T19:31:55.432Z,96864.78
2022-07-26T19:36:51.111Z,96870.16
2022-07-26T19:41:47.852Z,96868.50
2022-07-26T19:46:41.587Z,96874.06
2022-07-26T19:51:45.053Z,96867.06
2022-07-26T19:56:40.042Z,96882.94
2022-07-26T20:01:35.013Z,96895.78
2022-07-26T20:06:28.652Z,96888.69
2022-07-26T20:11:22.837Z,96886.22
2022-07-26T20:16:16.654Z,96884.56
2022-07-26T20:21:11.698Z,96882.72
2022-07-26T20:26:05.469Z,96883.75
2022-07-26T20:30:59.122Z,96879.16
2022-07-26T20:35:55.067Z,96887.78
2022-07-26T20:40:50.405Z,96883.84
2022-07-26T20:45:44.084Z,96888.56
2022-07-26T20:50:37.973Z,96884.41
2022-07-26T20:55:31.904Z,96887.28
2022-07-26T21:00:35.083Z,96882.94
2022-07-26T21:05:32.529Z,96884.38
2022-07-26T21:10:26.154Z,96885.75
2022-07-26T21:15:19.580Z,96892.72
2022-07-26T21:20:14.305Z,96901.00
2022-07-26T21:25:09.270Z,96908.34
2022-07-26T21:30:03.902Z,96922.34
2022-07-26T21:34:57.302Z,96923.03
2022-07-26T21:39:52.136Z,96934.16
2022-07-26T21:44:45.565Z,96932.72
2022-07-26T21:49:39.013Z,96934.63
2022-07-26T21:54:32.524Z,96938.19
2022-07-26T21:59:27.300Z,96948.63
2022-07-26T22:04:21.982Z,96952.88
2022-07-26T22:09:15.483Z,96938.78
2022-07-26T22:14:09.110Z,96952.25
2022-07-26T22:19:04.369Z,96955.09
2022-07-26T22:23:57.775Z,96950.41
2022-07-26T22:28:51.165Z,96948.38
2022-07-26T22:33:44.638Z,96935.50
2022-07-26T22:38:39.364Z,96926.53
2022-07-26T22:43:32.824Z,96925.84
2022-07-26T22:48:26.274Z,96927.50
2022-07-26T22:53:19.753Z,96925.94
2022-07-26T22:58:14.489Z,96939.56
2022-07-26T23:03:19.545Z,96932.94
2022-07-26T23:08:36.209Z,96932.25
2022-07-26T23:13:28.240Z,96927.97
2022-07-26T23:18:21.590Z,96923.47
2022-07-26T23:23:14.896Z,96929.19
2022-07-26T23:28:08.304Z,96935.94
2022-07-26T23:33:03.000Z,96933.25
2022-07-26T23:37:56.426Z,96934.56
2022-07-26T23:42:51.866Z,96940.91
2022-07-26T23:47:45.438Z,96945.16
2022-07-26T23:52:40.229Z,96936.31
2022-07-26T23:57:33.857Z,96944.53
